sensor_id;sensor_type;location;lat;lon;timestamp;pressure;altitude;pressure_sealevel;temperature;humidity
49451;BME280;35336;48.400;10.886;2023-08-24T00:00:14;96492.41;;;20.93;81.14
49451;BME280;35336;48.400;10.886;2023-08-24T00:00:30;96482.03;;;20.85;81.17
49451;BME280;35336;48.400;10.886;2023-08-24T00:00:45;96499.44;;;20.94;81.10
49451;BME280;35336;48.400;10.886;2023-08-24T00:01:00;96493.97;;;20.89;81.32
49451;BME280;35336;48.400;10.886;2023-08-24T00:01:16;96501.59;;;20.92;81.37
49451;BME280;35336;48.400;10.886;2023-08-24T00:01:33;96495.06;;;20.88;81.29
49451;BME280;35336;48.400;10.886;2023-08-24T00:01:48;96497.50;;;20.90;81.68
49451;BME280;35336;48.400;10.886;2023-08-24T00:02:04;96495.31;;;20.87;81.66
49451;BME280;35336;48.400;10.886;2023-08-24T00:02:21;96501.03;;;20.90;81.79
49451;BME280;35336;48.400;10.886;2023-08-24T00:02:36;96492.38;;;20.88;81.84
49451;BME280;35336;48.400;10.886;2023-08-24T00:02:54;96493.44;;;20.87;82.09
49451;BME280;35336;48.400;10.886;2023-08-24T00:03:09;96479.81;;;20.82;81.87
49451;BME280;35336;48.400;10.886;2023-08-24T00:03:25;96478.75;;;20.83;81.74
49451;BME280;35336;48.400;10.886;2023-08-24T00:03:40;96486.34;;;20.81;81.59
49451;BME280;35336;48.400;10.886;2023-08-24T00:03:55;96486.09;;;20.88;81.47
49451;BME280;35336;48.400;10.886;2023-08-24T00:04:10;96500.00;;;20.97;81.43
49451;BME280;35336;48.400;10.886;2023-08-24T00:04:28;96481.22;;;20.85;81.56
49451;BME280;35336;48.400;10.886;2023-08-24T00:04:43;96504.91;;;21.00;81.09
49451;BME280;35336;48.400;10.886;2023-08-24T00:04:59;96495.41;;;20.97;81.31
49451;BME280;35336;48.400;10.886;2023-08-24T00:05:16;96489.09;;;20.86;81.07
49451;BME280;35336;48.400;10.886;2023-08-24T00:05:35;96505.38;;;20.91;81.62
49451;BME280;35336;48.400;10.886;2023-08-24T00:05:50;96508.91;;;20.92;81.54
49451;BME280;35336;48.400;10.886;2023-08-24T00:06:05;96491.22;;;20.84;81.55
49451;BME280;35336;48.400;10.886;2023-08-24T00:06:21;96500.19;;;20.85;81.28
49451;BME280;35336;48.400;10.886;2023-08-24T00:06:36;96495.84;;;20.84;81.50
49451;BME280;35336;48.400;10.886;2023-08-24T00:06:51;96504.81;;;20.89;81.76
49451;BME280;35336;48.400;10.886;2023-08-24T00:07:06;96500.50;;;20.88;81.71
49451;BME280;35336;48.400;10.886;2023-08-24T00:07:22;96491.75;;;20.81;81.77
49451;BME280;35336;48.400;10.886;2023-08-24T00:07:39;96503.19;;;20.88;81.59
49451;BME280;35336;48.400;10.886;2023-08-24T00:07:55;96489.28;;;20.79;81.65
49451;BME280;35336;48.400;10.886;2023-08-24T00:08:10;96509.72;;;20.92;81.72
49451;BME280;35336;48.400;10.886;2023-08-24T00:08:26;96498.03;;;20.87;81.68
49451;BME280;35336;48.400;10.886;2023-08-24T00:08:41;96502.09;;;20.89;81.59
49451;BME280;35336;48.400;10.886;2023-08-24T00:08:56;96496.44;;;20.91;81.66
49451;BME280;35336;48.400;10.886;2023-08-24T00:09:14;96492.38;;;20.88;81.67
49451;BME280;35336;48.400;10.886;2023-08-24T00:09:29;96498.88;;;20.92;81.81
49451;BME280;35336;48.400;10.886;2023-08-24T00:09:44;96507.59;;;20.94;81.82
49451;BME280;35336;48.400;10.886;2023-08-24T00:10:00;96500.53;;;20.93;81.82
49451;BME280;35336;48.400;10.886;2023-08-24T00:10:15;96490.72;;;20.87;81.65
49451;BME280;35336;48.400;10.886;2023-08-24T00:10:37;96507.31;;;20.96;81.81
49451;BME280;35336;48.400;10.886;2023-08-24T00:10:59;96490.72;;;20.87;81.93
49451;BME280;35336;48.400;10.886;2023-08-24T00:11:18;96495.59;;;20.90;81.88
49451;BME280;35336;48.400;10.886;2023-08-24T00:11:36;96491.22;;;20.84;81.93
49451;BME280;35336;48.400;10.886;2023-08-24T00:11:51;96500.50;;;20.88;82.25
49451;BME280;35336;48.400;10.886;2023-08-24T00:12:09;96498.31;;;20.90;82.19
49451;BME280;35336;48.400;10.886;2023-08-24T00:12:24;96499.97;;;20.91;82.20
49451;BME280;35336;48.400;10.886;2023-08-24T00:12:45;96500.53;;;20.93;82.17
49451;BME280;35336;48.400;10.886;2023-08-24T00:13:00;96497.28;;;20.97;81.82
49451;BME280;35336;48.400;10.886;2023-08-24T00:13:15;96495.66;;;20.96;81.82
49451;BME280;35336;48.400;10.886;2023-08-24T00:13:33;96480.97;;;20.91;81.79
49451;BME280;35336;48.400;10.886;2023-08-24T00:13:48;96470.09;;;20.81;81.69
49451;BME280;35336;48.400;10.886;2023-08-24T00:14:08;96484.75;;;20.90;81.62
49451;BME280;35336;48.400;10.886;2023-08-24T00:14:24;96497.28;;;20.97;81.45
49451;BME280;35336;48.400;10.886;2023-08-24T00:14:41;96489.38;;;20.90;81.70
49451;BME280;35336;48.400;10.886;2023-08-24T00:14:57;96498.38;;;20.96;81.83
49451;BME280;35336;48.400;10.886;2023-08-24T00:15:12;96471.66;;;20.77;82.05
49451;BME280;35336;48.400;10.886;2023-08-24T00:15:30;96484.22;;;20.88;81.97
49451;BME280;35336;48.400;10.886;2023-08-24T00:15:46;96488.53;;;20.89;81.97
49451;BME280;35336;48.400;10.886;2023-08-24T00:16:03;96501.31;;;20.94;81.78
49451;BME280;35336;48.400;10.886;2023-08-24T00:16:19;96491.03;;;20.91;81.96
49451;BME280;35336;48.400;10.886;2023-08-24T00:16:34;96492.88;;;20.85;82.14
49451;BME280;35336;48.400;10.886;2023-08-24T00:16:52;96494.78;;;20.85;82.13
49451;BME280;35336;48.400;10.886;2023-08-24T00:17:07;96498.59;;;20.89;82.13
49451;BME280;35336;48.400;10.886;2023-08-24T00:17:23;96472.44;;;20.72;81.93
49451;BME280;35336;48.400;10.886;2023-08-24T00:17:38;96491.78;;;20.86;82.04
49451;BME280;35336;48.400;10.886;2023-08-24T00:17:53;96496.16;;;20.87;81.74
49451;BME280;35336;48.400;10.886;2023-08-24T00:18:11;96480.84;;;20.76;81.87
49451;BME280;35336;48.400;10.886;2023-08-24T00:18:29;96488.22;;;20.81;82.24
49451;BME280;35336;48.400;10.886;2023-08-24T00:18:46;96496.06;;;20.82;82.26
49451;BME280;35336;48.400;10.886;2023-08-24T00:19:02;96491.19;;;20.79;82.41
49451;BME280;35336;48.400;10.886;2023-08-24T00:19:17;96482.44;;;20.72;82.49
49451;BME280;35336;48.400;10.886;2023-08-24T00:19:32;96483.03;;;20.74;82.92
49451;BME280;35336;48.400;10.886;2023-08-24T00:19:47;96477.53;;;20.69;82.94
49451;BME280;35336;48.400;10.886;2023-08-24T00:20:06;96489.81;;;20.76;82.83
49451;BME280;35336;48.400;10.886;2023-08-24T00:20:22;96497.19;;;20.81;83.06
49451;BME280;35336;48.400;10.886;2023-08-24T00:20:37;96485.47;;;20.75;83.11
49451;BME280;35336;48.400;10.886;2023-08-24T00:20:57;96476.19;;;20.71;82.91
49451;BME280;35336;48.400;10.886;2023-08-24T00:21:13;96466.19;;;20.72;83.21
49451;BME280;35336;48.400;10.886;2023-08-24T00:21:31;96458.81;;;20.67;82.68
49451;BME280;35336;48.400;10.886;2023-08-24T00:21:46;96471.97;;;20.81;82.72
49451;BME280;35336;48.400;10.886;2023-08-24T00:22:01;96491.03;;;20.91;82.58
49451;BME280;35336;48.400;10.886;2023-08-24T00:22:17;96479.28;;;20.80;82.48
49451;BME280;35336;48.400;10.886;2023-08-24T00:22:32;96489.13;;;20.91;82.62
49451;BME280;35336;48.400;10.886;2023-08-24T00:22:47;96502.16;;;20.94;82.90
49451;BME280;35336;48.400;10.886;2023-08-24T00:23:05;96488.03;;;20.92;82.43
49451;BME280;35336;48.400;10.886;2023-08-24T00:23:20;96487.47;;;20.90;82.41
49451;BME280;35336;48.400;10.886;2023-08-24T00:23:36;96473.59;;;20.82;82.42
49451;BME280;35336;48.400;10.886;2023-08-24T00:23:51;96475.81;;;20.85;82.45
49451;BME280;35336;48.400;10.886;2023-08-24T00:24:09;96481.22;;;20.85;82.27
49451;BME280;35336;48.400;10.886;2023-08-24T00:24:26;96477.66;;;20.79;82.49
49451;BME280;35336;48.400;10.886;2023-08-24T00:24:41;96494.50;;;20.86;82.93
49451;BME280;35336;48.400;10.886;2023-08-24T00:24:57;96490.16;;;20.85;82.81
49451;BME280;35336;48.400;10.886;2023-08-24T00:25:16;96489.34;;;20.85;83.04
49451;BME280;35336;48.400;10.886;2023-08-24T00:25:31;96488.25;;;20.86;82.75
49451;BME280;35336;48.400;10.886;2023-08-24T00:25:51;96489.09;;;20.86;82.75
49451;BME280;35336;48.400;10.886;2023-08-24T00:26:07;96486.94;;;20.88;82.38
49451;BME280;35336;48.400;10.886;2023-08-24T00:26:22;96473.31;;;20.78;82.43
49451;BME280;35336;48.400;10.886;2023-08-24T00:26:37;96490.16;;;20.85;82.50
49451;BME280;35336;48.400;10.886;2023-08-24T00:26:52;96485.81;;;20.84;82.62
49451;BME280;35336;48.400;10.886;2023-08-24T00:27:08;96477.63;;;20.74;82.53
49451;BME280;35336;48.400;10.886;2023-08-24T00:27:28;96485.25;;;20.82;82.70
49451;BME280;35336;48.400;10.886;2023-08-24T00:27:43;96491.19;;;20.79;83.15
49451;BME280;35336;48.400;10.886;2023-08-24T00:27:58;96483.03;;;20.74;82.95
49451;BME280;35336;48.400;10.886;2023-08-24T00:28:16;96477.78;;;20.67;83.18
49451;BME280;35336;48.400;10.886;2023-08-24T00:28:31;96474.28;;;20.67;83.24
49451;BME280;35336;48.400;10.886;2023-08-24T00:28:46;96479.16;;;20.70;83.18
49451;BME280;35336;48.400;10.886;2023-08-24T00:29:02;96474.50;;;20.65;83.45
49451;BME280;35336;48.400;10.886;2023-08-24T00:29:17;96477.47;;;20.63;83.71
49451;BME280;35336;48.400;10.886;2023-08-24T00:29:32;96496.47;;;20.69;83.65
49451;BME280;35336;48.400;10.886;2023-08-24T00:29:51;96474.94;;;20.52;83.91
49451;BME280;35336;48.400;10.886;2023-08-24T00:30:07;96482.63;;;20.65;84.15
49451;BME280;35336;48.400;10.886;2023-08-24T00:30:25;96485.03;;;20.61;83.90
49451;BME280;35336;48.400;10.886;2023-08-24T00:30:40;96467.94;;;20.56;84.04
49451;BME280;35336;48.400;10.886;2023-08-24T00:30:58;96493.22;;;20.67;83.88
49451;BME280;35336;48.400;10.886;2023-08-24T00:31:15;96489.44;;;20.68;84.26
49451;BME280;35336;48.400;10.886;2023-08-24T00:31:33;96467.16;;;20.60;83.92
49451;BME280;35336;48.400;10.886;2023-08-24T00:31:48;96489.19;;;20.69;84.05
49451;BME280;35336;48.400;10.886;2023-08-24T00:32:03;96472.34;;;20.62;83.75
49451;BME280;35336;48.400;10.886;2023-08-24T00:32:25;96489.72;;;20.71;83.80
49451;BME280;35336;48.400;10.886;2023-08-24T00:32:40;96482.44;;;20.72;83.82
49451;BME280;35336;48.400;10.886;2023-08-24T00:32:56;96477.00;;;20.72;83.45
49451;BME280;35336;48.400;10.886;2023-08-24T00:33:11;96482.75;;;20.75;83.42
49451;BME280;35336;48.400;10.886;2023-08-24T00:33:29;96489.28;;;20.79;83.28
49451;BME280;35336;48.400;10.886;2023-08-24T00:33:44;96487.94;;;20.82;83.19
49451;BME280;35336;48.400;10.886;2023-08-24T00:33:59;96481.22;;;20.85;83.33
49451;BME280;35336;48.400;10.886;2023-08-24T00:34:17;96484.75;;;20.90;82.94
49451;BME280;35336;48.400;10.886;2023-08-24T00:34:32;96461.84;;;20.71;82.81
49451;BME280;35336;48.400;10.886;2023-08-24T00:34:50;96480.69;;;20.88;82.79
49451;BME280;35336;48.400;10.886;2023-08-24T00:35:09;96477.69;;;20.84;82.88
49451;BME280;35336;48.400;10.886;2023-08-24T00:35:24;96483.44;;;20.93;82.60
49451;BME280;35336;48.400;10.886;2023-08-24T00:35:39;96482.31;;;20.89;82.40
49451;BME280;35336;48.400;10.886;2023-08-24T00:36:01;96481.84;;;20.97;82.32
49451;BME280;35336;48.400;10.886;2023-08-24T00:36:16;96457.03;;;20.78;82.21
49451;BME280;35336;48.400;10.886;2023-08-24T00:36:31;96479.66;;;20.94;82.33
49451;BME280;35336;48.400;10.886;2023-08-24T00:36:47;96479.09;;;20.92;82.01
49451;BME280;35336;48.400;10.886;2023-08-24T00:37:04;96466.50;;;20.75;82.02
49451;BME280;35336;48.400;10.886;2023-08-24T00:37:22;96480.97;;;20.86;82.12
49451;BME280;35336;48.400;10.886;2023-08-24T00:37:39;96482.31;;;20.89;82.08
49451;BME280;35336;48.400;10.886;2023-08-24T00:37:55;96483.66;;;20.86;82.03
49451;BME280;35336;48.400;10.886;2023-08-24T00:38:10;96483.69;;;20.91;82.23
49451;BME280;35336;48.400;10.886;2023-08-24T00:38:26;96485.84;;;20.89;82.25
49451;BME280;35336;48.400;10.886;2023-08-24T00:38:41;96485.03;;;20.89;82.69
49451;BME280;35336;48.400;10.886;2023-08-24T00:39:01;96473.88;;;20.80;82.06
49451;BME280;35336;48.400;10.886;2023-08-24T00:39:19;96473.03;;;20.79;82.16
49451;BME280;35336;48.400;10.886;2023-08-24T00:39:34;96483.66;;;20.86;82.24
49451;BME280;35336;48.400;10.886;2023-08-24T00:39:49;96475.72;;;20.74;82.46
49451;BME280;35336;48.400;10.886;2023-08-24T00:40:06;96483.63;;;20.81;82.33
49451;BME280;35336;48.400;10.886;2023-08-24T00:40:24;96472.72;;;20.76;82.40
49451;BME280;35336;48.400;10.886;2023-08-24T00:40:42;96479.78;;;20.77;82.33
49451;BME280;35336;48.400;10.886;2023-08-24T00:40:58;96484.16;;;20.83;82.39
49451;BME280;35336;48.400;10.886;2023-08-24T00:41:13;96484.44;;;20.82;82.42
49451;BME280;35336;48.400;10.886;2023-08-24T00:41:28;96479.78;;;20.77;82.56
49451;BME280;35336;48.400;10.886;2023-08-24T00:41:44;96482.50;;;20.77;82.88
49451;BME280;35336;48.400;10.886;2023-08-24T00:42:01;96481.94;;;20.75;82.77
49451;BME280;35336;48.400;10.886;2023-08-24T00:42:17;96480.63;;;20.77;82.63
49451;BME280;35336;48.400;10.886;2023-08-24T00:42:37;96488.47;;;20.79;82.74
49451;BME280;35336;48.400;10.886;2023-08-24T00:42:52;96481.13;;;20.74;82.74
49451;BME280;35336;48.400;10.886;2023-08-24T00:43:08;96483.06;;;20.79;82.70
49451;BME280;35336;48.400;10.886;2023-08-24T00:43:23;96486.34;;;20.81;82.46
49451;BME280;35336;48.400;10.886;2023-08-24T00:43:38;96486.06;;;20.83;82.68
49451;BME280;35336;48.400;10.886;2023-08-24T00:43:54;96473.25;;;20.73;82.74
49451;BME280;35336;48.400;10.886;2023-08-24T00:44:09;96469.50;;;20.74;82.80
49451;BME280;35336;48.400;10.886;2023-08-24T00:44:26;96476.56;;;20.80;82.91
49451;BME280;35336;48.400;10.886;2023-08-24T00:44:42;96490.41;;;20.84;82.74
49451;BME280;35336;48.400;10.886;2023-08-24T00:44:59;96465.03;;;20.68;82.86
49451;BME280;35336;48.400;10.886;2023-08-24T00:45:15;96460.16;;;20.65;83.34
49451;BME280;35336;48.400;10.886;2023-08-24T00:45:31;96481.44;;;20.78;83.19
49451;BME280;35336;48.400;10.886;2023-08-24T00:45:47;96483.88;;;20.79;83.07
49451;BME280;35336;48.400;10.886;2023-08-24T00:46:03;96485.78;;;20.79;83.14
49451;BME280;35336;48.400;10.886;2023-08-24T00:46:18;96453.09;;;20.63;83.17
49451;BME280;35336;48.400;10.886;2023-08-24T00:46:38;96469.38;;;20.69;83.04
49451;BME280;35336;48.400;10.886;2023-08-24T00:46:54;96487.91;;;20.77;83.11
49451;BME280;35336;48.400;10.886;2023-08-24T00:47:14;96472.66;;;20.71;83.24
49451;BME280;35336;48.400;10.886;2023-08-24T00:47:31;96475.72;;;20.74;83.19
49451;BME280;35336;48.400;10.886;2023-08-24T00:47:48;96478.41;;;20.74;83.22
49451;BME280;35336;48.400;10.886;2023-08-24T00:48:04;96465.63;;;20.70;83.27
49451;BME280;35336;48.400;10.886;2023-08-24T00:48:20;96472.94;;;20.69;83.29
49451;BME280;35336;48.400;10.886;2023-08-24T00:48:36;96483.28;;;20.72;83.18
49451;BME280;35336;48.400;10.886;2023-08-24T00:48:51;96472.09;;;20.69;83.22
49451;BME280;35336;48.400;10.886;2023-08-24T00:49:07;96471.00;;;20.65;83.17
49451;BME280;35336;48.400;10.886;2023-08-24T00:49:22;96478.84;;;20.66;83.37
49451;BME280;35336;48.400;10.886;2023-08-24T00:49:40;96475.56;;;20.64;83.55
49451;BME280;35336;48.400;10.886;2023-08-24T00:49:55;96473.13;;;20.62;83.51
49451;BME280;35336;48.400;10.886;2023-08-24T00:50:11;96479.16;;;20.70;83.56
49451;BME280;35336;48.400;10.886;2023-08-24T00:50:27;96473.16;;;20.68;83.61
49451;BME280;35336;48.400;10.886;2023-08-24T00:50:43;96453.84;;;20.54;83.32
49451;BME280;35336;48.400;10.886;2023-08-24T00:51:00;96472.38;;;20.67;83.37
49451;BME280;35336;48.400;10.886;2023-08-24T00:51:15;96464.44;;;20.60;83.54
49451;BME280;35336;48.400;10.886;2023-08-24T00:51:30;96457.13;;;20.56;83.11
49451;BME280;35336;48.400;10.886;2023-08-24T00:51:46;96471.28;;;20.68;83.33
49451;BME280;35336;48.400;10.886;2023-08-24T00:52:04;96480.50;;;20.67;83.49
49451;BME280;35336;48.400;10.886;2023-08-24T00:52:19;96476.41;;;20.65;83.50
49451;BME280;35336;48.400;10.886;2023-08-24T00:52:36;96465.78;;;20.58;83.73
49451;BME280;35336;48.400;10.886;2023-08-24T00:52:52;96473.38;;;20.56;83.82
49451;BME280;35336;48.400;10.886;2023-08-24T00:53:07;96478.25;;;20.59;84.03
49451;BME280;35336;48.400;10.886;2023-08-24T00:53:24;96483.97;;;20.62;83.95
49451;BME280;35336;48.400;10.886;2023-08-24T00:53:40;96468.72;;;20.51;84.01
49451;BME280;35336;48.400;10.886;2023-08-24T00:53:56;96481.78;;;20.59;84.24
49451;BME280;35336;48.400;10.886;2023-08-24T00:54:15;96477.44;;;20.58;84.46
49451;BME280;35336;48.400;10.886;2023-08-24T00:54:30;96475.28;;;20.60;84.28
49451;BME280;35336;48.400;10.886;2023-08-24T00:54:46;96471.75;;;20.60;84.22
49451;BME280;35336;48.400;10.886;2023-08-24T00:55:02;96480.19;;;20.63;83.86
49451;BME280;35336;48.400;10.886;2023-08-24T00:55:17;96479.63;;;20.61;84.13
49451;BME280;35336;48.400;10.886;2023-08-24T00:55:33;96468.25;;;20.59;84.10
49451;BME280;35336;48.400;10.886;2023-08-24T00:55:48;96473.69;;;20.65;84.20
49451;BME280;35336;48.400;10.886;2023-08-24T00:56:06;96464.44;;;20.60;83.90
49451;BME280;35336;48.400;10.886;2023-08-24T00:56:21;96469.63;;;20.62;83.54
49451;BME280;35336;48.400;10.886;2023-08-24T00:56:39;96478.25;;;20.59;83.71
49451;BME280;35336;48.400;10.886;2023-08-24T00:56:55;96465.47;;;20.54;83.76
49451;BME280;35336;48.400;10.886;2023-08-24T00:57:11;96486.94;;;20.61;83.45
49451;BME280;35336;48.400;10.886;2023-08-24T00:57:29;96483.97;;;20.62;83.88
49451;BME280;35336;48.400;10.886;2023-08-24T00:57:45;96480.47;;;20.62;83.78
49451;BME280;35336;48.400;10.886;2023-08-24T00:58:02;96470.38;;;20.57;83.60
49451;BME280;35336;48.400;10.886;2023-08-24T00:58:17;96477.19;;;20.60;83.96
49451;BME280;35336;48.400;10.886;2023-08-24T00:58:33;96468.19;;;20.54;83.95
49451;BME280;35336;48.400;10.886;2023-08-24T00:58:48;96487.75;;;20.61;83.87
49451;BME280;35336;48.400;10.886;2023-08-24T00:59:04;96475.25;;;20.55;84.08
49451;BME280;35336;48.400;10.886;2023-08-24T00:59:19;96451.31;;;20.47;84.17
49451;BME280;35336;48.400;10.886;2023-08-24T00:59:35;96483.16;;;20.62;84.19
49451;BME280;35336;48.400;10.886;2023-08-24T00:59:50;96474.44;;;20.55;84.21
49451;BME280;35336;48.400;10.886;2023-08-24T01:00:06;96475.84;;;20.62;84.02
49451;BME280;35336;48.400;10.886;2023-08-24T01:00:24;96471.50;;;20.61;83.84
49451;BME280;35336;48.400;10.886;2023-08-24T01:00:39;96478.53;;;20.57;83.76
49451;BME280;35336;48.400;10.886;2023-08-24T01:00:56;96477.69;;;20.57;83.83
49451;BME280;35336;48.400;10.886;2023-08-24T01:01:12;96490.72;;;20.60;84.05
49451;BME280;35336;48.400;10.886;2023-08-24T01:01:27;96478.72;;;20.51;84.14
49451;BME280;35336;48.400;10.886;2023-08-24T01:01:47;96478.72;;;20.51;84.27
49451;BME280;35336;48.400;10.886;2023-08-24T01:02:05;96463.75;;;20.43;84.14
49451;BME280;35336;48.400;10.886;2023-08-24T01:02:22;96463.75;;;20.43;84.47
49451;BME280;35336;48.400;10.886;2023-08-24T01:02:42;96462.09;;;20.37;84.36
49451;BME280;35336;48.400;10.886;2023-08-24T01:03:00;96476.28;;;20.49;84.55
49451;BME280;35336;48.400;10.886;2023-08-24T01:03:15;96459.91;;;20.39;84.43
49451;BME280;35336;48.400;10.886;2023-08-24T01:03:30;96465.63;;;20.42;84.08
49451;BME280;35336;48.400;10.886;2023-08-24T01:03:46;96478.22;;;20.54;84.24
49451;BME280;35336;48.400;10.886;2023-08-24T01:04:02;96481.22;;;20.57;84.06
49451;BME280;35336;48.400;10.886;2023-08-24T01:04:18;96465.94;;;20.46;84.12
49451;BME280;35336;48.400;10.886;2023-08-24T01:04:33;96474.94;;;20.52;84.11
49451;BME280;35336;48.400;10.886;2023-08-24T01:04:51;96479.59;;;20.56;83.87
49451;BME280;35336;48.400;10.886;2023-08-24T01:05:09;96482.88;;;20.58;84.00
49451;BME280;35336;48.400;10.886;2023-08-24T01:05:24;96482.03;;;20.58;84.07
49451;BME280;35336;48.400;10.886;2023-08-24T01:05:40;96488.28;;;20.58;84.10
49451;BME280;35336;48.400;10.886;2023-08-24T01:05:57;96483.09;;;20.57;83.93
49451;BME280;35336;48.400;10.886;2023-08-24T01:06:15;96482.88;;;20.58;84.07
49451;BME280;35336;48.400;10.886;2023-08-24T01:06:30;96483.94;;;20.57;84.07
49451;BME280;35336;48.400;10.886;2023-08-24T01:06:45;96485.31;;;20.60;84.27
49451;BME280;35336;48.400;10.886;2023-08-24T01:07:03;96461.34;;;20.46;84.03
49451;BME280;35336;48.400;10.886;2023-08-24T01:07:18;96470.59;;;20.51;84.19
49451;BME280;35336;48.400;10.886;2023-08-24T01:07:37;96466.25;;;20.50;83.89
49451;BME280;35336;48.400;10.886;2023-08-24T01:07:53;96473.59;;;20.54;83.70
49451;BME280;35336;48.400;10.886;2023-08-24T01:08:08;96490.16;;;20.58;83.79
49451;BME280;35336;48.400;10.886;2023-08-24T01:08:26;96480.63;;;20.50;83.89
49451;BME280;35336;48.400;10.886;2023-08-24T01:08:44;96481.50;;;20.56;84.06
49451;BME280;35336;48.400;10.886;2023-08-24T01:08:59;96485.28;;;20.55;84.26
49451;BME280;35336;48.400;10.886;2023-08-24T01:09:15;96478.97;;;20.49;84.34
49451;BME280;35336;48.400;10.886;2023-08-24T01:09:30;96483.91;;;20.52;84.17
49451;BME280;35336;48.400;10.886;2023-08-24T01:09:46;96474.63;;;20.48;83.85
49451;BME280;35336;48.400;10.886;2023-08-24T01:10:05;96474.91;;;20.46;83.76
49451;BME280;35336;48.400;10.886;2023-08-24T01:10:20;96481.38;;;20.45;83.91
49451;BME280;35336;48.400;10.886;2023-08-24T01:10:45;96450.06;;;20.27;83.97
49451;BME280;35336;48.400;10.886;2023-08-24T01:11:18;96463.34;;;20.29;84.26
49451;BME280;35336;48.400;10.886;2023-08-24T01:11:45;96479.72;;;20.39;84.43
49451;BME280;35336;48.400;10.886;2023-08-24T01:12:26;96476.72;;;20.41;84.63
49451;BME280;35336;48.400;10.886;2023-08-24T01:13:00;96476.22;;;20.44;84.56
49451;BME280;35336;48.400;10.886;2023-08-24T01:13:25;96472.94;;;20.42;84.63
49451;BME280;35336;48.400;10.886;2023-08-24T01:14:21;96473.44;;;20.39;84.82
49451;BME280;35336;48.400;10.886;2023-08-24T01:16:07;96459.31;;;20.31;84.45
49451;BME280;35336;48.400;10.886;2023-08-24T01:16:27;96474.31;;;20.44;84.38
49451;BME280;35336;48.400;10.886;2023-08-24T01:16:45;96474.31;;;20.44;83.99
49451;BME280;35336;48.400;10.886;2023-08-24T01:17:03;96483.53;;;20.43;84.20
49451;BME280;35336;48.400;10.886;2023-08-24T01:17:23;96475.63;;;20.37;84.16
49451;BME280;35336;48.400;10.886;2023-08-24T01:17:42;96479.44;;;20.41;84.11
49451;BME280;35336;48.400;10.886;2023-08-24T01:18:04;96477.75;;;20.35;84.29
49451;BME280;35336;48.400;10.886;2023-08-24T01:18:23;96470.72;;;20.34;84.35
49451;BME280;35336;48.400;10.886;2023-08-24T01:18:41;96477.44;;;20.31;84.08
49451;BME280;35336;48.400;10.886;2023-08-24T01:18:58;96475.56;;;20.31;84.30
49451;BME280;35336;48.400;10.886;2023-08-24T01:19:44;96467.38;;;20.26;84.56
49451;BME280;35336;48.400;10.886;2023-08-24T01:20:00;96464.19;;;20.29;84.45
49451;BME280;35336;48.400;10.886;2023-08-24T01:20:15;96475.84;;;20.35;84.34
49451;BME280;35336;48.400;10.886;2023-08-24T01:20:34;96472.03;;;20.31;84.30
49451;BME280;35336;48.400;10.886;2023-08-24T01:20:52;96445.13;;;20.19;84.39
49451;BME280;35336;48.400;10.886;2023-08-24T01:21:08;96469.06;;;20.33;84.48
49451;BME280;35336;48.400;10.886;2023-08-24T01:21:25;96465.78;;;20.30;84.59
49451;BME280;35336;48.400;10.886;2023-08-24T01:21:41;96473.41;;;20.34;84.48
49451;BME280;35336;48.400;10.886;2023-08-24T01:21:57;96472.34;;;20.35;84.41
49451;BME280;35336;48.400;10.886;2023-08-24T01:22:28;96472.84;;;20.31;84.70
49451;BME280;35336;48.400;10.886;2023-08-24T01:24:20;96454.22;;;20.08;85.99
49451;BME280;35336;48.400;10.886;2023-08-24T01:24:47;96459.38;;;20.09;86.08
49451;BME280;35336;48.400;10.886;2023-08-24T01:25:16;96473.22;;;20.13;86.17
49451;BME280;35336;48.400;10.886;2023-08-24T01:25:37;96478.94;;;20.17;86.42
49451;BME280;35336;48.400;10.886;2023-08-24T01:26:24;96476.22;;;20.17;86.01
49451;BME280;35336;48.400;10.886;2023-08-24T01:26:40;96464.81;;;20.14;85.72
49451;BME280;35336;48.400;10.886;2023-08-24T01:26:56;96489.00;;;20.21;85.46
49451;BME280;35336;48.400;10.886;2023-08-24T01:27:12;96458.00;;;20.07;85.52
49451;BME280;35336;48.400;10.886;2023-08-24T01:27:28;96461.75;;;20.06;85.68
49451;BME280;35336;48.400;10.886;2023-08-24T01:27:47;96481.41;;;20.23;85.31
49451;BME280;35336;48.400;10.886;2023-08-24T01:28:06;96468.91;;;20.17;85.45
49451;BME280;35336;48.400;10.886;2023-08-24T01:28:23;96477.66;;;20.24;85.24
49451;BME280;35336;48.400;10.886;2023-08-24T01:28:40;96474.91;;;20.19;85.44
49451;BME280;35336;48.400;10.886;2023-08-24T01:28:57;96474.41;;;20.22;85.26
49451;BME280;35336;48.400;10.886;2023-08-24T01:29:13;96480.34;;;20.24;85.17
49451;BME280;35336;48.400;10.886;2023-08-24T01:29:29;96471.69;;;20.22;84.95
49451;BME280;35336;48.400;10.886;2023-08-24T01:29:45;96466.72;;;20.14;84.70
49451;BME280;35336;48.400;10.886;2023-08-24T01:30:05;96487.97;;;20.27;84.60
49451;BME280;35336;48.400;10.886;2023-08-24T01:30:20;96478.78;;;20.28;84.63
49451;BME280;35336;48.400;10.886;2023-08-24T01:30:43;96478.25;;;20.31;84.71
49451;BME280;35336;48.400;10.886;2023-08-24T01:30:59;96473.38;;;20.28;84.66
49451;BME280;35336;48.400;10.886;2023-08-24T01:31:15;96480.19;;;20.36;84.60
49451;BME280;35336;48.400;10.886;2023-08-24T01:31:31;96475.63;;;20.37;84.29
49451;BME280;35336;48.400;10.886;2023-08-24T01:31:48;96479.41;;;20.36;84.32
49451;BME280;35336;48.400;10.886;2023-08-24T01:32:04;96480.78;;;20.38;84.06
49451;BME280;35336;48.400;10.886;2023-08-24T01:32:19;96480.19;;;20.36;83.88
49451;BME280;35336;48.400;10.886;2023-08-24T01:32:36;96454.03;;;20.20;84.10
49451;BME280;35336;48.400;10.886;2023-08-24T01:32:52;96456.44;;;20.16;84.37
49451;BME280;35336;48.400;10.886;2023-08-24T01:33:07;96470.09;;;20.26;84.26